sensor_id;sensor_type;location;lat;lon;timestamp;P1;durP1;ratioP1;P2;durP2;ratioP2
55655;SDS011;41530;52.382;5.270;2023-07-31T00:01:32;0.82;;;0.50;;
55655;SDS011;41530;52.382;5.270;2023-07-31T00:03:59;0.98;;;0.60;;
55655;SDS011;41530;52.382;5.270;2023-07-31T00:06:25;0.50;;;0.50;;
55655;SDS011;41530;52.382;5.270;2023-07-31T00:08:52;0.52;;;0.52;;
55655;SDS011;41530;52.382;5.270;2023-07-31T00:11:19;0.70;;;0.70;;
55655;SDS011;41530;52.382;5.270;2023-07-31T00:13:45;0.60;;;0.52;;
55655;SDS011;41530;52.382;5.270;2023-07-31T00:16:12;0.85;;;0.40;;
55655;SDS011;41530;52.382;5.270;2023-07-31T00:18:38;0.77;;;0.50;;
55655;SDS011;41530;52.382;5.270;2023-07-31T00:21:05;0.75;;;0.60;;
55655;SDS011;41530;52.382;5.270;2023-07-31T00:23:32;0.40;;;0.40;;
55655;SDS011;41530;52.382;5.270;2023-07-31T00:25:59;1.02;;;0.52;;
55655;SDS011;41530;52.382;5.270;2023-07-31T00:28:25;0.60;;;0.60;;
55655;SDS011;41530;52.382;5.270;2023-07-31T00:30:53;0.45;;;0.45;;
55655;SDS011;41530;52.382;5.270;2023-07-31T00:33:19;0.45;;;0.45;;
55655;SDS011;41530;52.382;5.270;2023-07-31T00:35:46;0.45;;;0.45;;
55655;SDS011;41530;52.382;5.270;2023-07-31T00:38:12;0.30;;;0.30;;
55655;SDS011;41530;52.382;5.270;2023-07-31T00:40:39;0.30;;;0.30;;
55655;SDS011;41530;52.382;5.270;2023-07-31T00:43:06;0.50;;;0.50;;
55655;SDS011;41530;52.382;5.270;2023-07-31T00:45:32;1.33;;;0.50;;
55655;SDS011;41530;52.382;5.270;2023-07-31T00:47:59;0.40;;;0.40;;
55655;SDS011;41530;52.382;5.270;2023-07-31T00:50:27;0.60;;;0.55;;
55655;SDS011;41530;52.382;5.270;2023-07-31T00:52:54;0.43;;;0.43;;
55655;SDS011;41530;52.382;5.270;2023-07-31T00:55:21;0.50;;;0.50;;
55655;SDS011;41530;52.382;5.270;2023-07-31T00:57:48;1.33;;;0.52;;
55655;SDS011;41530;52.382;5.270;2023-07-31T01:00:16;0.75;;;0.60;;
55655;SDS011;41530;52.382;5.270;2023-07-31T01:02:43;1.00;;;0.47;;
55655;SDS011;41530;52.382;5.270;2023-07-31T01:05:10;0.95;;;0.60;;
55655;SDS011;41530;52.382;5.270;2023-07-31T01:07:51;0.50;;;0.50;;
55655;SDS011;41530;52.382;5.270;2023-07-31T01:10:30;1.27;;;0.70;;
55655;SDS011;41530;52.382;5.270;2023-07-31T01:13:03;0.70;;;0.60;;
55655;SDS011;41530;52.382;5.270;2023-07-31T01:15:30;0.60;;;0.50;;
55655;SDS011;41530;52.382;5.270;2023-07-31T01:17:56;0.90;;;0.40;;
55655;SDS011;41530;52.382;5.270;2023-07-31T01:20:23;0.85;;;0.60;;
55655;SDS011;41530;52.382;5.270;2023-07-31T01:31:04;0.60;;;0.50;;
55655;SDS011;41530;52.382;5.270;2023-07-31T01:33:36;1.35;;;0.60;;
55655;SDS011;41530;52.382;5.270;2023-07-31T01:36:03;0.93;;;0.40;;
55655;SDS011;41530;52.382;5.270;2023-07-31T01:38:30;1.10;;;0.60;;
55655;SDS011;41530;52.382;5.270;2023-07-31T01:40:57;1.25;;;0.68;;
55655;SDS011;41530;52.382;5.270;2023-07-31T01:43:24;0.52;;;0.40;;
55655;SDS011;41530;52.382;5.270;2023-07-31T01:45:50;0.60;;;0.60;;
55655;SDS011;41530;52.382;5.270;2023-07-31T01:48:17;0.93;;;0.88;;
55655;SDS011;41530;52.382;5.270;2023-07-31T01:50:44;1.02;;;0.60;;
55655;SDS011;41530;52.382;5.270;2023-07-31T01:53:10;1.00;;;0.70;;
55655;SDS011;41530;52.382;5.270;2023-07-31T01:55:38;1.20;;;0.60;;
55655;SDS011;41530;52.382;5.270;2023-07-31T01:58:05;0.98;;;0.45;;
55655;SDS011;41530;52.382;5.270;2023-07-31T02:00:31;1.00;;;0.50;;
55655;SDS011;41530;52.382;5.270;2023-07-31T02:02:59;1.13;;;0.70;;
55655;SDS011;41530;52.382;5.270;2023-07-31T02:05:26;0.60;;;0.60;;
55655;SDS011;41530;52.382;5.270;2023-07-31T02:07:52;1.20;;;0.70;;
55655;SDS011;41530;52.382;5.270;2023-07-31T02:10:19;0.73;;;0.50;;
55655;SDS011;41530;52.382;5.270;2023-07-31T02:12:46;0.90;;;0.70;;
55655;SDS011;41530;52.382;5.270;2023-07-31T02:15:13;2.08;;;0.82;;
55655;SDS011;41530;52.382;5.270;2023-07-31T02:17:39;1.60;;;0.57;;
55655;SDS011;41530;52.382;5.270;2023-07-31T02:20:06;0.70;;;0.50;;
55655;SDS011;41530;52.382;5.270;2023-07-31T02:22:33;1.35;;;0.80;;
55655;SDS011;41530;52.382;5.270;2023-07-31T02:25:00;1.15;;;0.70;;
55655;SDS011;41530;52.382;5.270;2023-07-31T02:27:26;0.80;;;0.68;;
55655;SDS011;41530;52.382;5.270;2023-07-31T02:29:54;1.25;;;0.70;;
55655;SDS011;41530;52.382;5.270;2023-07-31T02:32:21;1.58;;;0.60;;
55655;SDS011;41530;52.382;5.270;2023-07-31T02:34:48;0.60;;;0.60;;
55655;SDS011;41530;52.382;5.270;2023-07-31T02:37:14;1.67;;;0.80;;
55655;SDS011;41530;52.382;5.270;2023-07-31T02:39:41;1.63;;;1.00;;
55655;SDS011;41530;52.382;5.270;2023-07-31T02:42:07;1.15;;;0.70;;
55655;SDS011;41530;52.382;5.270;2023-07-31T02:44:34;1.88;;;0.82;;
55655;SDS011;41530;52.382;5.270;2023-07-31T02:47:01;1.73;;;0.80;;
55655;SDS011;41530;52.382;5.270;2023-07-31T02:49:29;1.17;;;0.88;;
55655;SDS011;41530;52.382;5.270;2023-07-31T02:51:56;1.35;;;0.80;;
55655;SDS011;41530;52.382;5.270;2023-07-31T02:54:22;3.10;;;0.90;;
55655;SDS011;41530;52.382;5.270;2023-07-31T02:56:49;1.17;;;0.88;;
55655;SDS011;41530;52.382;5.270;2023-07-31T02:59:16;1.13;;;0.80;;
55655;SDS011;41530;52.382;5.270;2023-07-31T03:01:44;1.38;;;0.77;;
55655;SDS011;41530;52.382;5.270;2023-07-31T03:04:10;1.92;;;0.90;;
55655;SDS011;41530;52.382;5.270;2023-07-31T03:06:37;1.13;;;0.95;;
55655;SDS011;41530;52.382;5.270;2023-07-31T03:09:04;0.90;;;0.80;;
55655;SDS011;41530;52.382;5.270;2023-07-31T03:11:31;1.73;;;0.90;;
55655;SDS011;41530;52.382;5.270;2023-07-31T03:13:57;1.70;;;1.08;;
55655;SDS011;41530;52.382;5.270;2023-07-31T03:16:24;3.20;;;1.10;;
55655;SDS011;41530;52.382;5.270;2023-07-31T03:18:51;1.50;;;1.00;;
55655;SDS011;41530;52.382;5.270;2023-07-31T03:21:17;1.80;;;1.00;;
55655;SDS011;41530;52.382;5.270;2023-07-31T03:23:44;1.73;;;0.80;;
55655;SDS011;41530;52.382;5.270;2023-07-31T03:26:11;2.55;;;1.00;;
55655;SDS011;41530;52.382;5.270;2023-07-31T03:28:37;1.85;;;1.08;;
55655;SDS011;41530;52.382;5.270;2023-07-31T03:31:04;3.63;;;1.25;;
55655;SDS011;41530;52.382;5.270;2023-07-31T03:33:31;2.45;;;1.17;;
55655;SDS011;41530;52.382;5.270;2023-07-31T03:35:57;2.38;;;1.10;;
55655;SDS011;41530;52.382;5.270;2023-07-31T03:38:24;1.42;;;1.20;;
55655;SDS011;41530;52.382;5.270;2023-07-31T03:40:51;2.08;;;0.93;;
55655;SDS011;41530;52.382;5.270;2023-07-31T03:43:17;2.67;;;1.13;;
55655;SDS011;41530;52.382;5.270;2023-07-31T03:45:44;2.20;;;1.08;;
55655;SDS011;41530;52.382;5.270;2023-07-31T03:48:11;1.95;;;1.20;;
55655;SDS011;41530;52.382;5.270;2023-07-31T03:50:37;2.33;;;1.13;;
55655;SDS011;41530;52.382;5.270;2023-07-31T03:53:04;2.30;;;1.30;;
55655;SDS011;41530;52.382;5.270;2023-07-31T03:55:31;2.42;;;1.20;;
55655;SDS011;41530;52.382;5.270;2023-07-31T03:57:57;2.90;;;1.20;;
55655;SDS011;41530;52.382;5.270;2023-07-31T04:00:24;1.77;;;1.05;;
55655;SDS011;41530;52.382;5.270;2023-07-31T04:02:51;1.98;;;0.95;;
55655;SDS011;41530;52.382;5.270;2023-07-31T04:05:18;1.50;;;1.00;;
55655;SDS011;41530;52.382;5.270;2023-07-31T04:07:45;1.75;;;1.35;;
55655;SDS011;41530;52.382;5.270;2023-07-31T04:10:11;2.00;;;1.00;;
55655;SDS011;41530;52.382;5.270;2023-07-31T04:12:39;2.28;;;1.30;;
55655;SDS011;41530;52.382;5.270;2023-07-31T04:15:06;2.85;;;1.40;;
55655;SDS011;41530;52.382;5.270;2023-07-31T04:17:32;2.22;;;1.30;;
55655;SDS011;41530;52.382;5.270;2023-07-31T04:19:59;3.70;;;1.60;;
55655;SDS011;41530;52.382;5.270;2023-07-31T04:22:26;2.92;;;1.50;;
55655;SDS011;41530;52.382;5.270;2023-07-31T04:24:53;2.15;;;1.38;;
55655;SDS011;41530;52.382;5.270;2023-07-31T04:27:20;2.67;;;1.25;;
55655;SDS011;41530;52.382;5.270;2023-07-31T04:29:47;3.88;;;1.48;;
55655;SDS011;41530;52.382;5.270;2023-07-31T04:32:13;2.90;;;1.60;;
55655;SDS011;41530;52.382;5.270;2023-07-31T04:34:43;2.10;;;1.50;;
55655;SDS011;41530;52.382;5.270;2023-07-31T04:37:09;2.35;;;1.40;;
55655;SDS011;41530;52.382;5.270;2023-07-31T04:39:36;3.20;;;1.52;;
55655;SDS011;41530;52.382;5.270;2023-07-31T04:42:03;2.50;;;1.50;;
55655;SDS011;41530;52.382;5.270;2023-07-31T04:44:30;2.70;;;1.70;;
55655;SDS011;41530;52.382;5.270;2023-07-31T04:46:56;3.75;;;1.40;;
55655;SDS011;41530;52.382;5.270;2023-07-31T04:49:23;3.53;;;1.50;;
55655;SDS011;41530;52.382;5.270;2023-07-31T04:51:50;3.40;;;1.73;;
55655;SDS011;41530;52.382;5.270;2023-07-31T04:54:16;1.75;;;1.40;;
55655;SDS011;41530;52.382;5.270;2023-07-31T04:56:43;3.78;;;1.70;;
55655;SDS011;41530;52.382;5.270;2023-07-31T04:59:10;2.75;;;1.42;;
55655;SDS011;41530;52.382;5.270;2023-07-31T05:01:36;2.67;;;1.33;;
55655;SDS011;41530;52.382;5.270;2023-07-31T05:04:03;3.58;;;1.63;;
55655;SDS011;41530;52.382;5.270;2023-07-31T05:06:30;2.90;;;1.40;;
55655;SDS011;41530;52.382;5.270;2023-07-31T05:08:56;2.85;;;1.67;;
55655;SDS011;41530;52.382;5.270;2023-07-31T05:11:23;3.30;;;1.67;;
55655;SDS011;41530;52.382;5.270;2023-07-31T05:13:50;2.25;;;1.10;;
55655;SDS011;41530;52.382;5.270;2023-07-31T05:16:16;3.63;;;1.67;;
55655;SDS011;41530;52.382;5.270;2023-07-31T05:18:43;2.83;;;1.60;;
55655;SDS011;41530;52.382;5.270;2023-07-31T05:21:10;2.85;;;1.58;;
55655;SDS011;41530;52.382;5.270;2023-07-31T05:23:36;2.55;;;1.42;;
55655;SDS011;41530;52.382;5.270;2023-07-31T05:26:04;3.42;;;1.75;;
55655;SDS011;41530;52.382;5.270;2023-07-31T05:28:33;3.80;;;1.77;;
55655;SDS011;41530;52.382;5.270;2023-07-31T05:31:01;3.75;;;1.60;;
55655;SDS011;41530;52.382;5.270;2023-07-31T05:33:29;1.90;;;1.40;;
55655;SDS011;41530;52.382;5.270;2023-07-31T05:35:55;3.30;;;1.77;;
55655;SDS011;41530;52.382;5.270;2023-07-31T05:38:22;2.55;;;1.50;;
55655;SDS011;41530;52.382;5.270;2023-07-31T05:40:49;2.20;;;1.40;;
55655;SDS011;41530;52.382;5.270;2023-07-31T05:43:16;3.65;;;1.88;;
55655;SDS011;41530;52.382;5.270;2023-07-31T05:45:42;2.65;;;1.55;;
55655;SDS011;41530;52.382;5.270;2023-07-31T05:48:09;2.95;;;1.38;;
55655;SDS011;41530;52.382;5.270;2023-07-31T05:50:36;1.88;;;1.52;;
55655;SDS011;41530;52.382;5.270;2023-07-31T05:53:05;2.65;;;1.50;;
55655;SDS011;41530;52.382;5.270;2023-07-31T05:55:32;1.95;;;1.30;;
55655;SDS011;41530;52.382;5.270;2023-07-31T05:57:59;2.22;;;1.50;;
55655;SDS011;41530;52.382;5.270;2023-07-31T06:00:26;2.55;;;1.48;;
55655;SDS011;41530;52.382;5.270;2023-07-31T06:02:54;2.97;;;1.60;;
55655;SDS011;41530;52.382;5.270;2023-07-31T06:05:21;2.20;;;1.50;;
55655;SDS011;41530;52.382;5.270;2023-07-31T06:07:47;2.15;;;1.50;;
55655;SDS011;41530;52.382;5.270;2023-07-31T06:10:14;2.80;;;1.60;;
55655;SDS011;41530;52.382;5.270;2023-07-31T06:12:41;1.83;;;1.48;;
55655;SDS011;41530;52.382;5.270;2023-07-31T06:15:07;3.20;;;1.40;;
55655;SDS011;41530;52.382;5.270;2023-07-31T06:17:34;2.00;;;1.30;;
55655;SDS011;41530;52.382;5.270;2023-07-31T06:20:01;2.30;;;1.38;;
55655;SDS011;41530;52.382;5.270;2023-07-31T06:22:27;2.25;;;1.30;;
55655;SDS011;41530;52.382;5.270;2023-07-31T06:24:54;2.63;;;1.63;;
55655;SDS011;41530;52.382;5.270;2023-07-31T06:27:20;3.00;;;1.58;;
55655;SDS011;41530;52.382;5.270;2023-07-31T06:29:47;2.17;;;1.35;;
55655;SDS011;41530;52.382;5.270;2023-07-31T06:32:14;1.50;;;1.20;;
55655;SDS011;41530;52.382;5.270;2023-07-31T06:34:41;1.90;;;1.38;;
55655;SDS011;41530;52.382;5.270;2023-07-31T06:37:07;2.00;;;1.30;;
55655;SDS011;41530;52.382;5.270;2023-07-31T06:39:34;3.50;;;1.30;;
55655;SDS011;41530;52.382;5.270;2023-07-31T06:42:01;1.90;;;1.40;;
55655;SDS011;41530;52.382;5.270;2023-07-31T06:44:27;1.65;;;1.10;;
55655;SDS011;41530;52.382;5.270;2023-07-31T06:46:54;2.00;;;1.33;;
55655;SDS011;41530;52.382;5.270;2023-07-31T06:49:21;1.90;;;1.13;;
55655;SDS011;41530;52.382;5.270;2023-07-31T06:51:47;1.73;;;1.45;;
55655;SDS011;41530;52.382;5.270;2023-07-31T06:54:14;1.50;;;1.23;;
55655;SDS011;41530;52.382;5.270;2023-07-31T06:56:41;2.55;;;1.30;;
55655;SDS011;41530;52.382;5.270;2023-07-31T06:59:08;1.98;;;1.00;;
55655;SDS011;41530;52.382;5.270;2023-07-31T07:01:34;2.03;;;1.30;;
55655;SDS011;41530;52.382;5.270;2023-07-31T07:04:01;1.33;;;1.10;;
55655;SDS011;41530;52.382;5.270;2023-07-31T07:06:28;1.58;;;1.20;;
55655;SDS011;41530;52.382;5.270;2023-07-31T07:08:54;3.10;;;1.27;;
55655;SDS011;41530;52.382;5.270;2023-07-31T07:11:21;2.22;;;1.40;;
55655;SDS011;41530;52.382;5.270;2023-07-31T07:13:50;2.53;;;1.25;;
55655;SDS011;41530;52.382;5.270;2023-07-31T07:16:17;2.50;;;1.23;;
55655;SDS011;41530;52.382;5.270;2023-07-31T07:18:43;1.88;;;1.00;;
55655;SDS011;41530;52.382;5.270;2023-07-31T07:21:28;1.30;;;0.98;;
55655;SDS011;41530;52.382;5.270;2023-07-31T07:23:54;2.45;;;1.20;;
55655;SDS011;41530;52.382;5.270;2023-07-31T07:26:21;1.48;;;1.13;;
55655;SDS011;41530;52.382;5.270;2023-07-31T07:28:48;2.80;;;1.20;;
55655;SDS011;41530;52.382;5.270;2023-07-31T07:31:14;1.58;;;1.20;;
55655;SDS011;41530;52.382;5.270;2023-07-31T07:33:44;3.42;;;1.05;;
55655;SDS011;41530;52.382;5.270;2023-07-31T07:36:10;1.85;;;0.93;;
55655;SDS011;41530;52.382;5.270;2023-07-31T07:38:39;1.83;;;1.25;;
55655;SDS011;41530;52.382;5.270;2023-07-31T07:41:05;1.50;;;1.15;;
55655;SDS011;41530;52.382;5.270;2023-07-31T07:43:32;1.50;;;1.00;;
55655;SDS011;41530;52.382;5.270;2023-07-31T07:45:58;2.00;;;1.10;;
55655;SDS011;41530;52.382;5.270;2023-07-31T07:48:25;2.42;;;1.10;;
55655;SDS011;41530;52.382;5.270;2023-07-31T07:50:52;1.63;;;0.95;;
55655;SDS011;41530;52.382;5.270;2023-07-31T07:53:18;1.00;;;0.77;;
55655;SDS011;41530;52.382;5.270;2023-07-31T07:55:45;1.63;;;1.00;;
55655;SDS011;41530;52.382;5.270;2023-07-31T07:58:12;1.17;;;0.90;;
55655;SDS011;41530;52.382;5.270;2023-07-31T08:00:38;0.85;;;0.80;;
55655;SDS011;41530;52.382;5.270;2023-07-31T08:03:05;0.88;;;0.88;;
55655;SDS011;41530;52.382;5.270;2023-07-31T08:05:32;1.67;;;0.90;;
55655;SDS011;41530;52.382;5.270;2023-07-31T08:08:00;1.55;;;1.10;;
55655;SDS011;41530;52.382;5.270;2023-07-31T08:10:27;1.40;;;0.80;;
55655;SDS011;41530;52.382;5.270;2023-07-31T08:12:54;1.10;;;0.90;;
55655;SDS011;41530;52.382;5.270;2023-07-31T08:15:20;1.20;;;0.90;;
55655;SDS011;41530;52.382;5.270;2023-07-31T08:17:47;1.42;;;0.93;;
55655;SDS011;41530;52.382;5.270;2023-07-31T08:20:14;2.17;;;1.00;;
55655;SDS011;41530;52.382;5.270;2023-07-31T08:22:41;0.82;;;0.82;;
55655;SDS011;41530;52.382;5.270;2023-07-31T08:25:07;1.55;;;0.98;;
55655;SDS011;41530;52.382;5.270;2023-07-31T08:27:34;1.77;;;0.90;;
55655;SDS011;41530;52.382;5.270;2023-07-31T08:30:01;1.45;;;1.10;;
55655;SDS011;41530;52.382;5.270;2023-07-31T08:32:27;1.45;;;0.88;;
55655;SDS011;41530;52.382;5.270;2023-07-31T08:34:54;0.70;;;0.60;;
55655;SDS011;41530;52.382;5.270;2023-07-31T08:37:21;1.40;;;0.70;;
55655;SDS011;41530;52.382;5.270;2023-07-31T08:39:47;1.20;;;0.90;;
55655;SDS011;41530;52.382;5.270;2023-07-31T08:42:14;1.48;;;0.75;;
55655;SDS011;41530;52.382;5.270;2023-07-31T08:44:40;1.00;;;0.80;;
55655;SDS011;41530;52.382;5.270;2023-07-31T08:47:09;0.90;;;0.80;;
55655;SDS011;41530;52.382;5.270;2023-07-31T08:49:36;0.60;;;0.52;;
55655;SDS011;41530;52.382;5.270;2023-07-31T08:52:04;0.85;;;0.80;;
55655;SDS011;41530;52.382;5.270;2023-07-31T08:54:32;0.95;;;0.65;;
55655;SDS011;41530;52.382;5.270;2023-07-31T08:56:59;0.90;;;0.70;;
55655;SDS011;41530;52.382;5.270;2023-07-31T08:59:30;1.08;;;0.73;;
55655;SDS011;41530;52.382;5.270;2023-07-31T09:01:58;0.80;;;0.65;;
55655;SDS011;41530;52.382;5.270;2023-07-31T09:04:31;1.35;;;0.70;;
55655;SDS011;41530;52.382;5.270;2023-07-31T09:07:03;0.88;;;0.70;;
55655;SDS011;41530;52.382;5.270;2023-07-31T09:09:31;0.73;;;0.68;;
55655;SDS011;41530;52.382;5.270;2023-07-31T09:11:58;1.13;;;0.70;;
55655;SDS011;41530;52.382;5.270;2023-07-31T09:14:25;1.27;;;0.75;;
55655;SDS011;41530;52.382;5.270;2023-07-31T09:16:56;1.50;;;0.60;;
55655;SDS011;41530;52.382;5.270;2023-07-31T09:19:25;0.70;;;0.60;;
55655;SDS011;41530;52.382;5.270;2023-07-31T09:22:05;1.25;;;0.60;;
55655;SDS011;41530;52.382;5.270;2023-07-31T09:24:33;0.80;;;0.50;;
55655;SDS011;41530;52.382;5.270;2023-07-31T09:27:01;0.95;;;0.70;;
55655;SDS011;41530;52.382;5.270;2023-07-31T09:29:28;0.95;;;0.60;;
55655;SDS011;41530;52.382;5.270;2023-07-31T09:31:56;0.70;;;0.57;;
55655;SDS011;41530;52.382;5.270;2023-07-31T09:34:36;0.40;;;0.40;;
55655;SDS011;41530;52.382;5.270;2023-07-31T09:37:07;0.80;;;0.60;;
55655;SDS011;41530;52.382;5.270;2023-07-31T09:39:43;0.70;;;0.60;;
55655;SDS011;41530;52.382;5.270;2023-07-31T09:42:12;0.52;;;0.50;;
55655;SDS011;41530;52.382;5.270;2023-07-31T09:44:40;0.52;;;0.50;;
55655;SDS011;41530;52.382;5.270;2023-07-31T09:47:20;0.85;;;0.50;;
55655;SDS011;41530;52.382;5.270;2023-07-31T09:49:50;0.93;;;0.60;;
55655;SDS011;41530;52.382;5.270;2023-07-31T09:52:17;1.25;;;0.68;;
55655;SDS011;41530;52.382;5.270;2023-07-31T09:54:44;0.88;;;0.50;;
55655;SDS011;41530;52.382;5.270;2023-07-31T09:57:10;0.45;;;0.40;;
55655;SDS011;41530;52.382;5.270;2023-07-31T09:59:38;0.68;;;0.50;;
55655;SDS011;41530;52.382;5.270;2023-07-31T10:02:05;0.60;;;0.60;;
55655;SDS011;41530;52.382;5.270;2023-07-31T10:04:41;0.85;;;0.60;;
55655;SDS011;41530;52.382;5.270;2023-07-31T10:07:12;0.40;;;0.40;;
55655;SDS011;41530;52.382;5.270;2023-07-31T10:09:40;0.77;;;0.50;;
55655;SDS011;41530;52.382;5.270;2023-07-31T10:12:08;0.52;;;0.52;;
55655;SDS011;41530;52.382;5.270;2023-07-31T10:14:38;0.45;;;0.40;;
55655;SDS011;41530;52.382;5.270;2023-07-31T10:17:07;0.45;;;0.40;;
55655;SDS011;41530;52.382;5.270;2023-07-31T10:19:35;0.93;;;0.57;;
55655;SDS011;41530;52.382;5.270;2023-07-31T10:22:03;0.60;;;0.60;;
55655;SDS011;41530;52.382;5.270;2023-07-31T10:24:30;0.90;;;0.52;;
55655;SDS011;41530;52.382;5.270;2023-07-31T10:26:58;0.82;;;0.50;;
55655;SDS011;41530;52.382;5.270;2023-07-31T10:29:27;0.63;;;0.50;;
55655;SDS011;41530;52.382;5.270;2023-07-31T10:31:57;1.05;;;0.50;;
55655;SDS011;41530;52.382;5.270;2023-07-31T10:34:24;0.40;;;0.40;;
55655;SDS011;41530;52.382;5.270;2023-07-31T10:37:18;0.57;;;0.45;;
55655;SDS011;41530;52.382;5.270;2023-07-31T10:39:59;0.40;;;0.40;;
55655;SDS011;41530;52.382;5.270;2023-07-31T10:42:31;0.70;;;0.50;;
55655;SDS011;41530;52.382;5.270;2023-07-31T10:45:07;0.75;;;0.50;;
55655;SDS011;41530;52.382;5.270;2023-07-31T10:47:37;0.75;;;0.70;;
55655;SDS011;41530;52.382;5.270;2023-07-31T10:50:11;0.40;;;0.40;;
55655;SDS011;41530;52.382;5.270;2023-07-31T10:52:46;1.20;;;0.60;;
55655;SDS011;41530;52.382;5.270;2023-07-31T10:57:47;0.75;;;0.60;;
55655;SDS011;41530;52.382;5.270;2023-07-31T11:05:40;1.23;;;0.50;;
55655;SDS011;41530;52.382;5.270;2023-07-31T11:08:24;1.50;;;0.47;;
55655;SDS011;41530;52.382;5.270;2023-07-31T11:13:30;0.93;;;0.70;;
55655;SDS011;41530;52.382;5.270;2023-07-31T11:15:57;0.45;;;0.40;;
55655;SDS011;41530;52.382;5.270;2023-07-31T11:18:26;0.73;;;0.70;;
55655;SDS011;41530;52.382;5.270;2023-07-31T11:20:53;0.85;;;0.60;;
55655;SDS011;41530;52.382;5.270;2023-07-31T11:23:21;0.75;;;0.60;;
55655;SDS011;41530;52.382;5.270;2023-07-31T11:25:48;1.45;;;0.60;;
55655;SDS011;41530;52.382;5.270;2023-07-31T11:28:17;0.80;;;0.80;;
55655;SDS011;41530;52.382;5.270;2023-07-31T11:30:45;0.88;;;0.52;;
55655;SDS011;41530;52.382;5.270;2023-07-31T11:33:13;1.27;;;0.60;;
55655;SDS011;41530;52.382;5.270;2023-07-31T11:35:41;1.00;;;0.50;;
55655;SDS011;41530;52.382;5.270;2023-07-31T11:38:12;1.20;;;0.60;;
55655;SDS011;41530;52.382;5.270;2023-07-31T11:40:48;0.73;;;0.60;;
55655;SDS011;41530;52.382;5.270;2023-07-31T11:43:14;0.60;;;0.52;;
55655;SDS011;41530;52.382;5.270;2023-07-31T11:45:47;0.93;;;0.63;;
55655;SDS011;41530;52.382;5.270;2023-07-31T11:48:28;0.50;;;0.50;;
55655;SDS011;41530;52.382;5.270;2023-07-31T11:50:57;0.90;;;0.80;;
55655;SDS011;41530;52.382;5.270;2023-07-31T11:53:26;1.05;;;0.63;;
55655;SDS011;41530;52.382;5.270;2023-07-31T11:56:06;0.50;;;0.50;;
55655;SDS011;41530;52.382;5.270;2023-07-31T11:58:35;1.27;;;0.60;;
55655;SDS011;41530;52.382;5.270;2023-07-31T12:01:02;1.33;;;0.70;;
55655;SDS011;41530;52.382;5.270;2023-07-31T12:03:30;0.93;;;0.60;;
55655;SDS011;41530;52.382;5.270;2023-07-31T12:05:58;0.98;;;0.60;;
55655;SDS011;41530;52.382;5.270;2023-07-31T12:08:26;1.25;;;0.60;;
55655;SDS011;41530;52.382;5.270;2023-07-31T12:10:53;0.70;;;0.50;;
55655;SDS011;41530;52.382;5.270;2023-07-31T12:13:25;0.80;;;0.60;;
55655;SDS011;41530;52.382;5.270;2023-07-31T12:15:56;1.58;;;0.55;;
55655;SDS011;41530;52.382;5.270;2023-07-31T12:18:24;0.60;;;0.50;;
55655;SDS011;41530;52.382;5.270;2023-07-31T12:23:23;1.05;;;0.60;;
55655;SDS011;41530;52.382;5.270;2023-07-31T12:28:42;1.13;;;0.60;;
55655;SDS011;41530;52.382;5.270;2023-07-31T12:31:19;1.17;;;0.40;;
55655;SDS011;41530;52.382;5.270;2023-07-31T12:33:49;0.65;;;0.52;;
55655;SDS011;41530;52.382;5.270;2023-07-31T12:36:17;0.70;;;0.60;;
55655;SDS011;41530;52.382;5.270;2023-07-31T12:38:49;1.30;;;0.60;;
55655;SDS011;41530;52.382;5.270;2023-07-31T12:41:16;0.50;;;0.50;;
55655;SDS011;41530;52.382;5.270;2023-07-31T12:43:43;1.20;;;0.60;;
55655;SDS011;41530;52.382;5.270;2023-07-31T12:46:11;1.20;;;0.60;;
55655;SDS011;41530;52.382;5.270;2023-07-31T12:48:38;0.93;;;0.68;;
55655;SDS011;41530;52.382;5.270;2023-07-31T12:51:05;1.10;;;0.50;;
55655;SDS011;41530;52.382;5.270;2023-07-31T12:53:35;0.88;;;0.50;;
55655;SDS011;41530;52.382;5.270;2023-07-31T12:56:02;1.27;;;0.52;;
55655;SDS011;41530;52.382;5.270;2023-07-31T12:58:29;0.95;;;0.60;;
55655;SDS011;41530;52.382;5.270;2023-07-31T13:00:56;0.70;;;0.57;;
55655;SDS011;41530;52.382;5.270;2023-07-31T13:03:22;1.77;;;0.90;;
55655;SDS011;41530;52.382;5.270;2023-07-31T13:05:49;1.00;;;0.55;;
55655;SDS011;41530;52.382;5.270;2023-07-31T13:08:16;1.27;;;0.60;;
55655;SDS011;41530;52.382;5.270;2023-07-31T13:10:44;1.02;;;0.63;;
55655;SDS011;41530;52.382;5.270;2023-07-31T13:13:11;0.70;;;0.60;;
55655;SDS011;41530;52.382;5.270;2023-07-31T13:15:37;2.97;;;0.80;;
55655;SDS011;41530;52.382;5.270;2023-07-31T13:18:04;2.15;;;0.65;;
55655;SDS011;41530;52.382;5.270;2023-07-31T13:20:31;1.10;;;0.60;;
55655;SDS011;41530;52.382;5.270;2023-07-31T13:22:58;0.60;;;0.60;;
55655;SDS011;41530;52.382;5.270;2023-07-31T13:25:24;0.63;;;0.50;;
55655;SDS011;41530;52.382;5.270;2023-07-31T13:27:51;1.17;;;0.70;;
55655;SDS011;41530;52.382;5.270;2023-07-31T13:30:17;1.42;;;0.60;;
55655;SDS011;41530;52.382;5.270;2023-07-31T13:32:44;1.75;;;0.98;;
55655;SDS011;41530;52.382;5.270;2023-07-31T13:35:11;2.60;;;0.80;;
55655;SDS011;41530;52.382;5.270;2023-07-31T13:37:38;1.10;;;0.70;;
55655;SDS011;41530;52.382;5.270;2023-07-31T13:40:05;1.95;;;0.50;;
55655;SDS011;41530;52.382;5.270;2023-07-31T13:42:32;0.68;;;0.50;;
55655;SDS011;41530;52.382;5.270;2023-07-31T13:44:59;1.10;;;0.70;;
55655;SDS011;41530;52.382;5.270;2023-07-31T13:47:28;0.70;;;0.60;;
55655;SDS011;41530;52.382;5.270;2023-07-31T13:49:55;1.48;;;0.60;;
55655;SDS011;41530;52.382;5.270;2023-07-31T13:52:22;0.80;;;0.65;;
55655;SDS011;41530;52.382;5.270;2023-07-31T13:54:49;0.60;;;0.60;;
55655;SDS011;41530;52.382;5.270;2023-07-31T13:57:15;1.33;;;0.77;;
55655;SDS011;41530;52.382;5.270;2023-07-31T13:59:43;0.63;;;0.60;;
55655;SDS011;41530;52.382;5.270;2023-07-31T14:02:10;1.30;;;0.68;;
55655;SDS011;41530;52.382;5.270;2023-07-31T14:04:36;1.45;;;0.82;;
55655;SDS011;41530;52.382;5.270;2023-07-31T14:07:03;1.52;;;0.70;;
55655;SDS011;41530;52.382;5.270;2023-07-31T14:09:30;3.22;;;0.70;;
55655;SDS011;41530;52.382;5.270;2023-07-31T14:11:57;1.63;;;0.70;;
55655;SDS011;41530;52.382;5.270;2023-07-31T14:14:24;0.68;;;0.60;;
55655;SDS011;41530;52.382;5.270;2023-07-31T14:16:50;1.02;;;0.60;;
55655;SDS011;41530;52.382;5.270;2023-07-31T14:19:17;1.35;;;0.63;;
55655;SDS011;41530;52.382;5.270;2023-07-31T14:21:44;0.80;;;0.68;;
55655;SDS011;41530;52.382;5.270;2023-07-31T14:24:26;0.77;;;0.60;;
55655;SDS011;41530;52.382;5.270;2023-07-31T14:26:52;1.05;;;0.55;;
55655;SDS011;41530;52.382;5.270;2023-07-31T14:29:19;0.63;;;0.55;;
55655;SDS011;41530;52.382;5.270;2023-07-31T14:31:46;0.77;;;0.60;;
55655;SDS011;41530;52.382;5.270;2023-07-31T14:34:13;0.57;;;0.50;;
55655;SDS011;41530;52.382;5.270;2023-07-31T14:36:39;1.15;;;0.50;;
55655;SDS011;41530;52.382;5.270;2023-07-31T14:39:07;1.00;;;0.50;;
55655;SDS011;41530;52.382;5.270;2023-07-31T14:41:33;1.08;;;0.50;;
55655;SDS011;41530;52.382;5.270;2023-07-31T14:44:00;1.27;;;0.50;;
55655;SDS011;41530;52.382;5.270;2023-07-31T14:46:26;2.35;;;0.65;;
55655;SDS011;41530;52.382;5.270;2023-07-31T14:48:54;1.13;;;0.60;;
55655;SDS011;41530;52.382;5.270;2023-07-31T14:51:21;0.68;;;0.50;;
55655;SDS011;41530;52.382;5.270;2023-07-31T14:53:48;0.80;;;0.50;;
55655;SDS011;41530;52.382;5.270;2023-07-31T14:56:14;0.60;;;0.50;;
55655;SDS011;41530;52.382;5.270;2023-07-31T14:58:41;1.50;;;0.60;;
55655;SDS011;41530;52.382;5.270;2023-07-31T15:01:07;0.70;;;0.50;;
55655;SDS011;41530;52.382;5.270;2023-07-31T15:03:34;0.50;;;0.43;;
55655;SDS011;41530;52.382;5.270;2023-07-31T15:06:01;0.90;;;0.60;;
55655;SDS011;41530;52.382;5.270;2023-07-31T15:08:28;0.68;;;0.60;;
55655;SDS011;41530;52.382;5.270;2023-07-31T15:10:54;0.63;;;0.40;;
55655;SDS011;41530;52.382;5.270;2023-07-31T15:13:24;0.40;;;0.40;;
55655;SDS011;41530;52.382;5.270;2023-07-31T15:15:51;1.63;;;0.80;;